VOBG/BLR METAR and TAF weather

Enter ICAO airport designator
Station Type Date Time Source
VOBG METAR 2022/01/29 10:30 UTC NOAA

VOBG 291030Z 07010KT 6000 SCT012 BKN080 26/16 Q1015 NOSIG


Station Type Date Time Source
VOBG Decoded METAR 2022/01/29 10:30 UTC NOAA

Bangalore / Hindustan, India (VOBG) 12-57N 077-40E
Jan 29, 2022 - 05:30 AM EST / 2022.01.29 1030 UTC
Wind: from the ENE (070 degrees) at 12 MPH (10 KT):0
Visibility: 3 mile(s):0
Sky conditions: mostly cloudy
Temperature: 78 F (26 C)
Dew Point: 60 F (16 C)
Relative Humidity: 54%
Pressure (altimeter): 29.97 in. Hg (1015 hPa)
ob: VOBG 291030Z 07010KT 6000 SCT012 BKN080 26/16 Q1015 NOSIG
cycle: 10

Station Type Date Time Source
VOBG TAF 2021/10/27 00:00 UTC NOAA

TAF VOBG 262300Z 2700/2709 VRB02KT 3000 BR BKN008 SCT012
TEMPO 2700/2703 0800 FG BKN008 SCT012
BECMG 2704/2705 6000 SCT012 SCT020

Example: see airport list